sensor_id;sensor_type;location;lat;lon;timestamp;P1;durP1;ratioP1;P2;durP2;ratioP2
15230;SDS011;32569;51.762;8.564;2022-09-12T00:01:01;13.70;;;12.20;;
15230;SDS011;32569;51.762;8.564;2022-09-12T00:03:29;15.37;;;12.43;;
15230;SDS011;32569;51.762;8.564;2022-09-12T00:05:56;14.07;;;12.20;;
15230;SDS011;32569;51.762;8.564;2022-09-12T00:08:24;15.13;;;13.53;;
15230;SDS011;32569;51.762;8.564;2022-09-12T00:10:51;15.50;;;12.27;;
15230;SDS011;32569;51.762;8.564;2022-09-12T00:13:17;14.43;;;12.87;;
15230;SDS011;32569;51.762;8.564;2022-09-12T00:15:44;13.53;;;11.73;;
15230;SDS011;32569;51.762;8.564;2022-09-12T00:18:12;14.87;;;12.53;;
15230;SDS011;32569;51.762;8.564;2022-09-12T00:20:41;14.57;;;12.67;;
15230;SDS011;32569;51.762;8.564;2022-09-12T00:23:08;15.97;;;12.60;;
15230;SDS011;32569;51.762;8.564;2022-09-12T00:25:40;17.47;;;14.30;;
15230;SDS011;32569;51.762;8.564;2022-09-12T00:28:07;18.00;;;13.47;;
15230;SDS011;32569;51.762;8.564;2022-09-12T00:30:38;20.10;;;13.83;;
15230;SDS011;32569;51.762;8.564;2022-09-12T00:33:06;17.33;;;14.03;;
15230;SDS011;32569;51.762;8.564;2022-09-12T00:35:32;16.03;;;13.17;;
15230;SDS011;32569;51.762;8.564;2022-09-12T00:37:59;14.83;;;13.23;;
15230;SDS011;32569;51.762;8.564;2022-09-12T00:40:27;16.70;;;13.90;;
15230;SDS011;32569;51.762;8.564;2022-09-12T00:42:55;15.27;;;13.57;;
15230;SDS011;32569;51.762;8.564;2022-09-12T00:45:23;14.97;;;12.70;;
15230;SDS011;32569;51.762;8.564;2022-09-12T00:47:53;16.33;;;13.57;;
15230;SDS011;32569;51.762;8.564;2022-09-12T00:50:22;13.97;;;11.77;;
15230;SDS011;32569;51.762;8.564;2022-09-12T00:52:50;15.90;;;13.77;;
15230;SDS011;32569;51.762;8.564;2022-09-12T00:55:21;14.77;;;12.80;;
15230;SDS011;32569;51.762;8.564;2022-09-12T00:57:52;14.40;;;12.87;;
15230;SDS011;32569;51.762;8.564;2022-09-12T01:00:24;17.20;;;12.40;;
15230;SDS011;32569;51.762;8.564;2022-09-12T01:02:52;18.07;;;13.67;;
15230;SDS011;32569;51.762;8.564;2022-09-12T01:05:21;17.17;;;13.60;;
15230;SDS011;32569;51.762;8.564;2022-09-12T01:07:49;15.50;;;12.97;;
15230;SDS011;32569;51.762;8.564;2022-09-12T01:10:16;16.53;;;13.17;;
15230;SDS011;32569;51.762;8.564;2022-09-12T01:12:44;16.63;;;12.53;;
15230;SDS011;32569;51.762;8.564;2022-09-12T01:15:11;16.67;;;13.57;;
15230;SDS011;32569;51.762;8.564;2022-09-12T01:17:42;14.57;;;12.67;;
15230;SDS011;32569;51.762;8.564;2022-09-12T01:20:34;17.90;;;13.90;;
15230;SDS011;32569;51.762;8.564;2022-09-12T01:23:18;15.27;;;12.57;;
15230;SDS011;32569;51.762;8.564;2022-09-12T01:26:04;15.97;;;13.00;;
15230;SDS011;32569;51.762;8.564;2022-09-12T01:28:49;13.30;;;11.87;;
15230;SDS011;32569;51.762;8.564;2022-09-12T01:31:28;12.03;;;10.73;;
15230;SDS011;32569;51.762;8.564;2022-09-12T01:34:05;12.80;;;11.47;;
15230;SDS011;32569;51.762;8.564;2022-09-12T01:36:42;13.37;;;11.63;;
15230;SDS011;32569;51.762;8.564;2022-09-12T01:39:19;14.00;;;11.73;;
15230;SDS011;32569;51.762;8.564;2022-09-12T01:41:58;17.77;;;14.27;;
15230;SDS011;32569;51.762;8.564;2022-09-12T01:44:35;12.97;;;11.50;;
15230;SDS011;32569;51.762;8.564;2022-09-12T01:47:13;12.67;;;11.03;;
15230;SDS011;32569;51.762;8.564;2022-09-12T01:49:48;13.90;;;11.60;;
15230;SDS011;32569;51.762;8.564;2022-09-12T01:52:24;12.87;;;11.43;;
15230;SDS011;32569;51.762;8.564;2022-09-12T01:54:54;15.67;;;11.57;;
15230;SDS011;32569;51.762;8.564;2022-09-12T01:57:28;12.70;;;11.40;;
15230;SDS011;32569;51.762;8.564;2022-09-12T02:00:03;14.87;;;11.93;;
15230;SDS011;32569;51.762;8.564;2022-09-12T02:02:34;13.40;;;10.67;;
15230;SDS011;32569;51.762;8.564;2022-09-12T02:05:05;13.47;;;11.03;;
15230;SDS011;32569;51.762;8.564;2022-09-12T02:07:35;15.20;;;11.60;;
15230;SDS011;32569;51.762;8.564;2022-09-12T02:10:05;16.47;;;12.33;;
15230;SDS011;32569;51.762;8.564;2022-09-12T02:12:37;13.53;;;12.23;;
15230;SDS011;32569;51.762;8.564;2022-09-12T02:15:08;14.97;;;12.23;;
15230;SDS011;32569;51.762;8.564;2022-09-12T02:17:40;15.40;;;11.90;;
15230;SDS011;32569;51.762;8.564;2022-09-12T02:20:11;12.33;;;11.03;;
15230;SDS011;32569;51.762;8.564;2022-09-12T02:22:41;14.53;;;12.47;;
15230;SDS011;32569;51.762;8.564;2022-09-12T02:25:10;13.80;;;11.90;;
15230;SDS011;32569;51.762;8.564;2022-09-12T02:27:41;13.87;;;12.30;;
15230;SDS011;32569;51.762;8.564;2022-09-12T02:30:12;15.53;;;12.77;;
15230;SDS011;32569;51.762;8.564;2022-09-12T02:32:42;15.03;;;12.23;;
15230;SDS011;32569;51.762;8.564;2022-09-12T02:35:20;17.17;;;12.23;;
15230;SDS011;32569;51.762;8.564;2022-09-12T02:37:53;16.40;;;13.23;;
15230;SDS011;32569;51.762;8.564;2022-09-12T02:40:24;16.43;;;13.07;;
15230;SDS011;32569;51.762;8.564;2022-09-12T02:42:51;17.90;;;13.97;;
15230;SDS011;32569;51.762;8.564;2022-09-12T02:45:18;20.63;;;14.93;;
15230;SDS011;32569;51.762;8.564;2022-09-12T02:47:48;18.80;;;15.20;;
15230;SDS011;32569;51.762;8.564;2022-09-12T02:50:18;17.50;;;14.87;;
15230;SDS011;32569;51.762;8.564;2022-09-12T02:52:44;21.53;;;15.97;;
15230;SDS011;32569;51.762;8.564;2022-09-12T02:55:12;20.40;;;15.33;;
15230;SDS011;32569;51.762;8.564;2022-09-12T02:57:40;20.07;;;14.90;;
15230;SDS011;32569;51.762;8.564;2022-09-12T03:00:07;17.43;;;14.90;;
15230;SDS011;32569;51.762;8.564;2022-09-12T03:02:39;20.40;;;14.43;;
15230;SDS011;32569;51.762;8.564;2022-09-12T03:05:18;18.63;;;14.43;;
15230;SDS011;32569;51.762;8.564;2022-09-12T03:07:58;20.90;;;16.40;;
15230;SDS011;32569;51.762;8.564;2022-09-12T03:10:36;19.47;;;15.33;;
15230;SDS011;32569;51.762;8.564;2022-09-12T03:13:16;23.07;;;17.67;;
15230;SDS011;32569;51.762;8.564;2022-09-12T03:15:50;22.60;;;16.47;;
15230;SDS011;32569;51.762;8.564;2022-09-12T03:18:28;25.07;;;15.60;;
15230;SDS011;32569;51.762;8.564;2022-09-12T03:21:07;25.07;;;17.27;;
15230;SDS011;32569;51.762;8.564;2022-09-12T03:23:41;23.70;;;16.63;;
15230;SDS011;32569;51.762;8.564;2022-09-12T03:26:17;24.20;;;17.00;;
15230;SDS011;32569;51.762;8.564;2022-09-12T03:28:51;23.13;;;16.73;;
15230;SDS011;32569;51.762;8.564;2022-09-12T03:31:19;23.87;;;16.93;;
15230;SDS011;32569;51.762;8.564;2022-09-12T03:33:45;22.20;;;17.43;;
15230;SDS011;32569;51.762;8.564;2022-09-12T03:36:15;22.80;;;17.40;;
15230;SDS011;32569;51.762;8.564;2022-09-12T03:38:44;27.20;;;18.03;;
15230;SDS011;32569;51.762;8.564;2022-09-12T03:41:11;23.40;;;16.83;;
15230;SDS011;32569;51.762;8.564;2022-09-12T03:43:37;24.43;;;17.23;;
15230;SDS011;32569;51.762;8.564;2022-09-12T03:46:04;22.43;;;17.30;;
15230;SDS011;32569;51.762;8.564;2022-09-12T03:48:31;20.30;;;16.80;;
15230;SDS011;32569;51.762;8.564;2022-09-12T03:51:00;25.70;;;16.63;;
15230;SDS011;32569;51.762;8.564;2022-09-12T03:53:29;22.00;;;17.73;;
15230;SDS011;32569;51.762;8.564;2022-09-12T03:55:56;24.73;;;17.70;;
15230;SDS011;32569;51.762;8.564;2022-09-12T03:58:23;24.00;;;16.87;;
15230;SDS011;32569;51.762;8.564;2022-09-12T04:00:54;22.40;;;16.77;;
15230;SDS011;32569;51.762;8.564;2022-09-12T04:03:21;24.93;;;17.97;;
15230;SDS011;32569;51.762;8.564;2022-09-12T04:05:48;25.97;;;17.37;;
15230;SDS011;32569;51.762;8.564;2022-09-12T04:08:14;22.40;;;17.43;;
15230;SDS011;32569;51.762;8.564;2022-09-12T04:10:42;24.63;;;17.07;;
15230;SDS011;32569;51.762;8.564;2022-09-12T04:13:09;25.50;;;18.23;;
15230;SDS011;32569;51.762;8.564;2022-09-12T04:15:35;24.10;;;17.00;;
15230;SDS011;32569;51.762;8.564;2022-09-12T04:18:02;23.03;;;17.27;;
15230;SDS011;32569;51.762;8.564;2022-09-12T04:20:29;24.30;;;17.63;;
15230;SDS011;32569;51.762;8.564;2022-09-12T04:22:55;23.67;;;17.30;;
15230;SDS011;32569;51.762;8.564;2022-09-12T04:25:22;28.73;;;17.53;;
15230;SDS011;32569;51.762;8.564;2022-09-12T04:27:50;24.03;;;17.73;;
15230;SDS011;32569;51.762;8.564;2022-09-12T04:30:17;25.90;;;17.03;;
15230;SDS011;32569;51.762;8.564;2022-09-12T04:32:43;25.23;;;17.87;;
15230;SDS011;32569;51.762;8.564;2022-09-12T04:35:10;25.37;;;18.17;;
15230;SDS011;32569;51.762;8.564;2022-09-12T04:37:38;25.47;;;17.77;;
15230;SDS011;32569;51.762;8.564;2022-09-12T04:40:04;26.47;;;17.80;;
15230;SDS011;32569;51.762;8.564;2022-09-12T04:42:32;23.27;;;16.63;;
15230;SDS011;32569;51.762;8.564;2022-09-12T04:45:00;23.57;;;17.50;;
15230;SDS011;32569;51.762;8.564;2022-09-12T04:47:27;22.63;;;16.73;;
15230;SDS011;32569;51.762;8.564;2022-09-12T04:49:54;24.80;;;17.63;;
15230;SDS011;32569;51.762;8.564;2022-09-12T04:52:20;23.90;;;17.37;;
15230;SDS011;32569;51.762;8.564;2022-09-12T04:54:47;23.20;;;17.10;;
15230;SDS011;32569;51.762;8.564;2022-09-12T04:57:14;22.83;;;17.93;;
15230;SDS011;32569;51.762;8.564;2022-09-12T04:59:41;23.10;;;17.47;;
15230;SDS011;32569;51.762;8.564;2022-09-12T05:02:09;22.47;;;17.57;;
15230;SDS011;32569;51.762;8.564;2022-09-12T05:04:35;24.33;;;16.53;;
15230;SDS011;32569;51.762;8.564;2022-09-12T05:07:02;22.53;;;17.17;;
15230;SDS011;32569;51.762;8.564;2022-09-12T05:09:29;24.00;;;17.90;;
15230;SDS011;32569;51.762;8.564;2022-09-12T05:11:56;25.87;;;17.20;;
15230;SDS011;32569;51.762;8.564;2022-09-12T05:14:23;24.80;;;17.97;;
15230;SDS011;32569;51.762;8.564;2022-09-12T05:16:49;25.27;;;17.00;;
15230;SDS011;32569;51.762;8.564;2022-09-12T05:19:17;25.63;;;18.17;;
15230;SDS011;32569;51.762;8.564;2022-09-12T05:21:44;22.87;;;17.93;;
15230;SDS011;32569;51.762;8.564;2022-09-12T05:24:11;22.97;;;18.07;;
15230;SDS011;32569;51.762;8.564;2022-09-12T05:26:37;26.60;;;18.97;;
15230;SDS011;32569;51.762;8.564;2022-09-12T05:29:04;24.13;;;19.30;;
15230;SDS011;32569;51.762;8.564;2022-09-12T05:31:31;26.43;;;18.93;;
15230;SDS011;32569;51.762;8.564;2022-09-12T05:33:58;23.67;;;18.23;;
15230;SDS011;32569;51.762;8.564;2022-09-12T05:36:26;25.93;;;19.27;;
15230;SDS011;32569;51.762;8.564;2022-09-12T05:38:54;20.47;;;16.57;;
15230;SDS011;32569;51.762;8.564;2022-09-12T05:41:22;20.10;;;14.73;;
15230;SDS011;32569;51.762;8.564;2022-09-12T05:43:51;19.27;;;14.80;;
15230;SDS011;32569;51.762;8.564;2022-09-12T05:46:19;19.77;;;15.83;;
15230;SDS011;32569;51.762;8.564;2022-09-12T05:48:47;16.17;;;13.50;;
15230;SDS011;32569;51.762;8.564;2022-09-12T05:51:16;17.40;;;14.00;;
15230;SDS011;32569;51.762;8.564;2022-09-12T05:53:47;16.97;;;13.47;;
15230;SDS011;32569;51.762;8.564;2022-09-12T05:56:15;17.03;;;14.47;;
15230;SDS011;32569;51.762;8.564;2022-09-12T05:58:44;19.60;;;15.13;;
15230;SDS011;32569;51.762;8.564;2022-09-12T06:01:12;17.67;;;14.37;;
15230;SDS011;32569;51.762;8.564;2022-09-12T06:03:41;18.10;;;14.40;;
15230;SDS011;32569;51.762;8.564;2022-09-12T06:06:09;18.57;;;14.90;;
15230;SDS011;32569;51.762;8.564;2022-09-12T06:08:37;20.40;;;14.77;;
15230;SDS011;32569;51.762;8.564;2022-09-12T06:11:07;20.00;;;15.50;;
15230;SDS011;32569;51.762;8.564;2022-09-12T06:13:35;20.20;;;15.33;;
15230;SDS011;32569;51.762;8.564;2022-09-12T06:16:04;18.27;;;15.67;;
15230;SDS011;32569;51.762;8.564;2022-09-12T06:18:33;23.17;;;16.03;;
15230;SDS011;32569;51.762;8.564;2022-09-12T06:21:03;19.07;;;15.70;;
15230;SDS011;32569;51.762;8.564;2022-09-12T06:23:31;22.10;;;14.73;;
15230;SDS011;32569;51.762;8.564;2022-09-12T06:25:58;18.67;;;15.53;;
15230;SDS011;32569;51.762;8.564;2022-09-12T06:28:27;16.97;;;15.03;;
15230;SDS011;32569;51.762;8.564;2022-09-12T06:30:59;16.43;;;14.10;;
15230;SDS011;32569;51.762;8.564;2022-09-12T06:33:28;19.47;;;14.70;;
15230;SDS011;32569;51.762;8.564;2022-09-12T06:35:55;17.47;;;14.93;;
15230;SDS011;32569;51.762;8.564;2022-09-12T06:38:28;19.93;;;14.73;;
15230;SDS011;32569;51.762;8.564;2022-09-12T06:40:55;18.20;;;15.30;;
15230;SDS011;32569;51.762;8.564;2022-09-12T06:43:22;18.30;;;14.37;;
15230;SDS011;32569;51.762;8.564;2022-09-12T06:45:50;19.43;;;15.00;;
15230;SDS011;32569;51.762;8.564;2022-09-12T06:48:16;17.67;;;15.17;;
15230;SDS011;32569;51.762;8.564;2022-09-12T06:50:46;19.27;;;15.43;;
15230;SDS011;32569;51.762;8.564;2022-09-12T06:53:20;16.97;;;14.83;;
15230;SDS011;32569;51.762;8.564;2022-09-12T06:55:53;15.93;;;13.97;;
15230;SDS011;32569;51.762;8.564;2022-09-12T06:58:20;16.20;;;14.03;;
15230;SDS011;32569;51.762;8.564;2022-09-12T07:00:47;18.80;;;14.80;;
15230;SDS011;32569;51.762;8.564;2022-09-12T07:03:15;15.47;;;13.77;;
15230;SDS011;32569;51.762;8.564;2022-09-12T07:05:42;18.77;;;13.47;;
15230;SDS011;32569;51.762;8.564;2022-09-12T07:08:09;17.23;;;14.33;;
15230;SDS011;32569;51.762;8.564;2022-09-12T07:10:36;15.93;;;13.20;;
15230;SDS011;32569;51.762;8.564;2022-09-12T07:13:03;17.47;;;13.80;;
15230;SDS011;32569;51.762;8.564;2022-09-12T07:15:29;16.60;;;13.20;;
15230;SDS011;32569;51.762;8.564;2022-09-12T07:17:56;13.90;;;11.87;;
15230;SDS011;32569;51.762;8.564;2022-09-12T07:20:24;17.03;;;13.20;;
15230;SDS011;32569;51.762;8.564;2022-09-12T07:22:50;14.90;;;12.40;;
15230;SDS011;32569;51.762;8.564;2022-09-12T07:25:17;14.80;;;12.43;;
15230;SDS011;32569;51.762;8.564;2022-09-12T07:27:43;15.10;;;13.00;;
15230;SDS011;32569;51.762;8.564;2022-09-12T07:30:10;14.70;;;13.07;;
15230;SDS011;32569;51.762;8.564;2022-09-12T07:32:37;13.23;;;11.60;;
15230;SDS011;32569;51.762;8.564;2022-09-12T07:35:04;12.43;;;11.13;;
15230;SDS011;32569;51.762;8.564;2022-09-12T07:37:33;13.60;;;10.83;;
15230;SDS011;32569;51.762;8.564;2022-09-12T07:39:59;12.93;;;11.53;;
15230;SDS011;32569;51.762;8.564;2022-09-12T07:42:26;14.47;;;11.50;;
15230;SDS011;32569;51.762;8.564;2022-09-12T07:44:54;12.13;;;10.77;;
15230;SDS011;32569;51.762;8.564;2022-09-12T07:47:21;15.10;;;11.03;;
15230;SDS011;32569;51.762;8.564;2022-09-12T07:49:48;11.30;;;9.83;;
15230;SDS011;32569;51.762;8.564;2022-09-12T07:52:14;13.17;;;10.53;;
15230;SDS011;32569;51.762;8.564;2022-09-12T07:54:42;14.07;;;10.43;;
15230;SDS011;32569;51.762;8.564;2022-09-12T07:57:09;10.50;;;9.50;;
15230;SDS011;32569;51.762;8.564;2022-09-12T07:59:35;10.73;;;9.60;;
15230;SDS011;32569;51.762;8.564;2022-09-12T08:02:08;9.87;;;8.50;;
15230;SDS011;32569;51.762;8.564;2022-09-12T08:04:37;9.60;;;8.67;;
15230;SDS011;32569;51.762;8.564;2022-09-12T08:07:06;10.57;;;9.43;;
15230;SDS011;32569;51.762;8.564;2022-09-12T08:09:33;10.43;;;8.40;;
15230;SDS011;32569;51.762;8.564;2022-09-12T08:12:01;9.67;;;8.67;;
15230;SDS011;32569;51.762;8.564;2022-09-12T08:14:28;11.70;;;8.17;;
15230;SDS011;32569;51.762;8.564;2022-09-12T08:16:55;8.83;;;7.43;;
15230;SDS011;32569;51.762;8.564;2022-09-12T08:19:22;8.97;;;7.53;;
15230;SDS011;32569;51.762;8.564;2022-09-12T08:21:48;7.57;;;6.70;;
15230;SDS011;32569;51.762;8.564;2022-09-12T08:24:15;8.00;;;7.20;;
15230;SDS011;32569;51.762;8.564;2022-09-12T08:26:42;8.50;;;7.53;;
15230;SDS011;32569;51.762;8.564;2022-09-12T08:29:11;7.63;;;6.77;;
15230;SDS011;32569;51.762;8.564;2022-09-12T08:31:38;7.87;;;7.10;;
15230;SDS011;32569;51.762;8.564;2022-09-12T08:34:06;7.17;;;6.47;;
15230;SDS011;32569;51.762;8.564;2022-09-12T08:36:33;8.00;;;7.20;;
15230;SDS011;32569;51.762;8.564;2022-09-12T08:39:02;8.87;;;6.90;;
15230;SDS011;32569;51.762;8.564;2022-09-12T08:41:30;8.10;;;6.77;;
15230;SDS011;32569;51.762;8.564;2022-09-12T08:44:03;7.70;;;7.00;;
15230;SDS011;32569;51.762;8.564;2022-09-12T08:46:46;6.97;;;6.27;;
15230;SDS011;32569;51.762;8.564;2022-09-12T08:49:24;8.47;;;6.93;;
15230;SDS011;32569;51.762;8.564;2022-09-12T08:51:55;7.67;;;6.47;;
15230;SDS011;32569;51.762;8.564;2022-09-12T08:54:26;7.37;;;6.67;;
15230;SDS011;32569;51.762;8.564;2022-09-12T08:56:55;6.77;;;6.20;;
15230;SDS011;32569;51.762;8.564;2022-09-12T08:59:27;7.40;;;6.30;;
15230;SDS011;32569;51.762;8.564;2022-09-12T09:01:57;7.43;;;6.37;;
15230;SDS011;32569;51.762;8.564;2022-09-12T09:04:31;8.67;;;6.53;;
15230;SDS011;32569;51.762;8.564;2022-09-12T09:07:14;7.07;;;6.37;;
15230;SDS011;32569;51.762;8.564;2022-09-12T09:09:56;6.90;;;6.13;;
15230;SDS011;32569;51.762;8.564;2022-09-12T09:12:33;7.47;;;6.67;;
15230;SDS011;32569;51.762;8.564;2022-09-12T09:15:16;7.77;;;6.37;;
15230;SDS011;32569;51.762;8.564;2022-09-12T09:17:52;7.20;;;6.50;;
15230;SDS011;32569;51.762;8.564;2022-09-12T09:20:26;6.83;;;6.13;;
15230;SDS011;32569;51.762;8.564;2022-09-12T09:22:57;10.23;;;6.63;;
15230;SDS011;32569;51.762;8.564;2022-09-12T09:25:35;7.43;;;6.63;;
15230;SDS011;32569;51.762;8.564;2022-09-12T09:28:08;6.77;;;6.07;;
15230;SDS011;32569;51.762;8.564;2022-09-12T09:30:40;6.23;;;5.63;;
15230;SDS011;32569;51.762;8.564;2022-09-12T09:33:10;8.17;;;6.40;;
15230;SDS011;32569;51.762;8.564;2022-09-12T09:35:45;6.27;;;5.67;;
15230;SDS011;32569;51.762;8.564;2022-09-12T09:38:17;7.33;;;6.63;;
15230;SDS011;32569;51.762;8.564;2022-09-12T09:40:51;7.77;;;6.43;;
15230;SDS011;32569;51.762;8.564;2022-09-12T09:43:31;8.63;;;6.30;;
15230;SDS011;32569;51.762;8.564;2022-09-12T09:45:59;7.70;;;6.87;;
15230;SDS011;32569;51.762;8.564;2022-09-12T09:48:26;8.43;;;7.10;;
15230;SDS011;32569;51.762;8.564;2022-09-12T09:50:56;8.17;;;6.63;;
15230;SDS011;32569;51.762;8.564;2022-09-12T09:53:28;6.37;;;5.77;;
15230;SDS011;32569;51.762;8.564;2022-09-12T09:56:00;6.73;;;6.10;;
15230;SDS011;32569;51.762;8.564;2022-09-12T09:58:33;7.57;;;6.70;;
15230;SDS011;32569;51.762;8.564;2022-09-12T10:01:03;6.90;;;6.23;;
15230;SDS011;32569;51.762;8.564;2022-09-12T10:03:33;6.70;;;5.77;;
15230;SDS011;32569;51.762;8.564;2022-09-12T10:06:05;7.50;;;6.27;;
15230;SDS011;32569;51.762;8.564;2022-09-12T10:08:33;7.63;;;6.73;;
15230;SDS011;32569;51.762;8.564;2022-09-12T10:11:03;6.73;;;6.00;;
15230;SDS011;32569;51.762;8.564;2022-09-12T10:13:36;6.97;;;5.97;;
15230;SDS011;32569;51.762;8.564;2022-09-12T10:16:16;6.43;;;5.80;;
15230;SDS011;32569;51.762;8.564;2022-09-12T10:18:44;9.53;;;6.90;;
15230;SDS011;32569;51.762;8.564;2022-09-12T10:21:15;6.87;;;6.17;;
15230;SDS011;32569;51.762;8.564;2022-09-12T10:24:02;8.00;;;6.50;;
15230;SDS011;32569;51.762;8.564;2022-09-12T10:26:36;7.00;;;6.30;;
15230;SDS011;32569;51.762;8.564;2022-09-12T10:29:12;9.20;;;7.17;;
15230;SDS011;32569;51.762;8.564;2022-09-12T10:31:44;7.70;;;6.90;;
15230;SDS011;32569;51.762;8.564;2022-09-12T10:34:23;8.03;;;7.20;;
15230;SDS011;32569;51.762;8.564;2022-09-12T10:36:58;9.37;;;6.90;;
15230;SDS011;32569;51.762;8.564;2022-09-12T10:39:26;8.10;;;6.43;;
15230;SDS011;32569;51.762;8.564;2022-09-12T10:41:53;9.43;;;6.80;;
15230;SDS011;32569;51.762;8.564;2022-09-12T10:44:23;7.33;;;6.20;;
15230;SDS011;32569;51.762;8.564;2022-09-12T10:46:52;8.13;;;7.33;;
15230;SDS011;32569;51.762;8.564;2022-09-12T10:49:21;7.80;;;6.90;;
15230;SDS011;32569;51.762;8.564;2022-09-12T10:51:52;7.53;;;6.47;;
15230;SDS011;32569;51.762;8.564;2022-09-12T10:54:21;7.13;;;6.43;;
15230;SDS011;32569;51.762;8.564;2022-09-12T10:56:53;7.40;;;6.60;;
15230;SDS011;32569;51.762;8.564;2022-09-12T10:59:31;8.20;;;5.97;;
15230;SDS011;32569;51.762;8.564;2022-09-12T11:02:11;8.47;;;6.07;;
15230;SDS011;32569;51.762;8.564;2022-09-12T11:04:49;7.80;;;6.23;;
15230;SDS011;32569;51.762;8.564;2022-09-12T11:07:32;8.83;;;6.70;;
15230;SDS011;32569;51.762;8.564;2022-09-12T11:10:13;6.47;;;5.87;;
15230;SDS011;32569;51.762;8.564;2022-09-12T11:12:52;7.00;;;6.33;;
15230;SDS011;32569;51.762;8.564;2022-09-12T11:15:34;7.20;;;6.13;;
15230;SDS011;32569;51.762;8.564;2022-09-12T11:18:11;7.27;;;6.10;;
15230;SDS011;32569;51.762;8.564;2022-09-12T11:26:40;7.60;;;6.40;;
15230;SDS011;32569;51.762;8.564;2022-09-12T11:29:16;11.00;;;6.17;;
15230;SDS011;32569;51.762;8.564;2022-09-12T11:34:58;6.67;;;6.03;;
15230;SDS011;32569;51.762;8.564;2022-09-12T11:37:35;6.57;;;5.97;;
15230;SDS011;32569;51.762;8.564;2022-09-12T11:40:21;6.30;;;5.70;;
15230;SDS011;32569;51.762;8.564;2022-09-12T11:42:54;9.97;;;5.90;;
15230;SDS011;32569;51.762;8.564;2022-09-12T11:45:25;6.63;;;5.90;;
15230;SDS011;32569;51.762;8.564;2022-09-12T11:47:56;6.23;;;5.63;;
15230;SDS011;32569;51.762;8.564;2022-09-12T11:50:30;6.87;;;6.13;;
15230;SDS011;32569;51.762;8.564;2022-09-12T11:52:59;5.93;;;5.33;;
15230;SDS011;32569;51.762;8.564;2022-09-12T11:55:31;6.67;;;6.07;;
15230;SDS011;32569;51.762;8.564;2022-09-12T11:58:06;6.83;;;6.23;;
15230;SDS011;32569;51.762;8.564;2022-09-12T12:00:35;8.57;;;6.47;;
15230;SDS011;32569;51.762;8.564;2022-09-12T12:03:07;7.27;;;6.57;;
15230;SDS011;32569;51.762;8.564;2022-09-12T12:05:41;6.93;;;5.87;;
15230;SDS011;32569;51.762;8.564;2022-09-12T12:08:14;6.77;;;6.07;;
15230;SDS011;32569;51.762;8.564;2022-09-12T12:10:41;8.97;;;6.27;;
15230;SDS011;32569;51.762;8.564;2022-09-12T12:13:15;6.90;;;6.20;;
15230;SDS011;32569;51.762;8.564;2022-09-12T12:15:45;6.70;;;5.63;;
15230;SDS011;32569;51.762;8.564;2022-09-12T12:18:15;6.83;;;6.10;;
15230;SDS011;32569;51.762;8.564;2022-09-12T12:20:45;6.43;;;5.83;;
15230;SDS011;32569;51.762;8.564;2022-09-12T12:23:21;6.03;;;5.43;;
15230;SDS011;32569;51.762;8.564;2022-09-12T12:25:52;6.37;;;5.77;;
15230;SDS011;32569;51.762;8.564;2022-09-12T12:31:35;6.97;;;5.63;;
15230;SDS011;32569;51.762;8.564;2022-09-12T12:34:37;7.23;;;6.40;;
15230;SDS011;32569;51.762;8.564;2022-09-12T12:40:08;6.43;;;5.93;;
15230;SDS011;32569;51.762;8.564;2022-09-12T12:48:22;7.33;;;5.73;;
15230;SDS011;32569;51.762;8.564;2022-09-12T12:50:49;5.73;;;5.13;;
15230;SDS011;32569;51.762;8.564;2022-09-12T12:53:17;6.20;;;5.30;;
15230;SDS011;32569;51.762;8.564;2022-09-12T12:55:49;5.67;;;5.10;;
15230;SDS011;32569;51.762;8.564;2022-09-12T12:58:22;6.03;;;5.43;;
15230;SDS011;32569;51.762;8.564;2022-09-12T13:01:04;6.70;;;5.67;;
15230;SDS011;32569;51.762;8.564;2022-09-12T13:03:37;5.87;;;5.00;;
15230;SDS011;32569;51.762;8.564;2022-09-12T13:06:07;6.00;;;5.47;;
15230;SDS011;32569;51.762;8.564;2022-09-12T13:08:54;7.37;;;5.13;;
15230;SDS011;32569;51.762;8.564;2022-09-12T13:11:33;5.70;;;5.10;;
15230;SDS011;32569;51.762;8.564;2022-09-12T13:14:02;5.37;;;4.87;;
15230;SDS011;32569;51.762;8.564;2022-09-12T13:16:32;5.77;;;5.20;;
15230;SDS011;32569;51.762;8.564;2022-09-12T13:19:02;7.43;;;5.57;;
15230;SDS011;32569;51.762;8.564;2022-09-12T13:21:31;6.80;;;5.20;;
15230;SDS011;32569;51.762;8.564;2022-09-12T13:23:59;4.93;;;4.53;;
15230;SDS011;32569;51.762;8.564;2022-09-12T13:26:27;6.43;;;5.40;;
15230;SDS011;32569;51.762;8.564;2022-09-12T13:29:09;5.63;;;5.10;;
15230;SDS011;32569;51.762;8.564;2022-09-12T13:31:37;5.53;;;4.80;;
15230;SDS011;32569;51.762;8.564;2022-09-12T13:34:05;5.70;;;5.20;;
15230;SDS011;32569;51.762;8.564;2022-09-12T13:36:42;5.20;;;4.80;;
15230;SDS011;32569;51.762;8.564;2022-09-12T13:39:33;5.00;;;4.60;;
15230;SDS011;32569;51.762;8.564;2022-09-12T13:42:24;5.60;;;5.10;;
15230;SDS011;32569;51.762;8.564;2022-09-12T13:45:02;5.20;;;4.80;;
15230;SDS011;32569;51.762;8.564;2022-09-12T13:47:33;5.63;;;5.10;;
15230;SDS011;32569;51.762;8.564;2022-09-12T13:50:02;5.13;;;4.70;;
15230;SDS011;32569;51.762;8.564;2022-09-12T13:52:31;5.30;;;4.80;;
15230;SDS011;32569;51.762;8.564;2022-09-12T13:55:00;5.00;;;4.60;;
15230;SDS011;32569;51.762;8.564;2022-09-12T13:57:33;4.93;;;4.53;;
15230;SDS011;32569;51.762;8.564;2022-09-12T14:00:04;5.00;;;4.50;;
15230;SDS011;32569;51.762;8.564;2022-09-12T14:02:33;4.50;;;4.07;;
15230;SDS011;32569;51.762;8.564;2022-09-12T14:05:09;4.87;;;4.37;;
15230;SDS011;32569;51.762;8.564;2022-09-12T14:07:38;4.77;;;4.37;;
15230;SDS011;32569;51.762;8.564;2022-09-12T14:10:16;5.00;;;4.60;;
15230;SDS011;32569;51.762;8.564;2022-09-12T14:12:49;4.60;;;4.20;;
15230;SDS011;32569;51.762;8.564;2022-09-12T14:15:17;5.07;;;4.20;;
15230;SDS011;32569;51.762;8.564;2022-09-12T14:17:47;4.53;;;4.10;;
15230;SDS011;32569;51.762;8.564;2022-09-12T14:20:16;4.83;;;3.90;;
15230;SDS011;32569;51.762;8.564;2022-09-12T14:22:44;4.43;;;4.03;;
15230;SDS011;32569;51.762;8.564;2022-09-12T14:25:13;5.53;;;3.57;;
15230;SDS011;32569;51.762;8.564;2022-09-12T14:27:41;4.57;;;4.00;;
15230;SDS011;32569;51.762;8.564;2022-09-12T14:30:19;5.40;;;4.67;;
15230;SDS011;32569;51.762;8.564;2022-09-12T14:33:11;4.70;;;4.23;;
15230;SDS011;32569;51.762;8.564;2022-09-12T14:35:43;4.27;;;3.87;;
15230;SDS011;32569;51.762;8.564;2022-09-12T14:38:12;4.47;;;4.07;;
15230;SDS011;32569;51.762;8.564;2022-09-12T14:40:51;4.20;;;3.80;;
15230;SDS011;32569;51.762;8.564;2022-09-12T14:43:25;4.40;;;4.03;;
15230;SDS011;32569;51.762;8.564;2022-09-12T14:45:56;3.83;;;3.53;;
15230;SDS011;32569;51.762;8.564;2022-09-12T14:48:24;4.47;;;3.90;;
15230;SDS011;32569;51.762;8.564;2022-09-12T14:50:53;4.40;;;4.00;;
15230;SDS011;32569;51.762;8.564;2022-09-12T14:53:21;3.90;;;3.60;;
15230;SDS011;32569;51.762;8.564;2022-09-12T14:55:50;3.83;;;3.43;;
15230;SDS011;32569;51.762;8.564;2022-09-12T14:58:22;4.20;;;3.80;;
15230;SDS011;32569;51.762;8.564;2022-09-12T15:00:52;4.10;;;3.70;;
15230;SDS011;32569;51.762;8.564;2022-09-12T15:03:26;4.73;;;4.23;;
15230;SDS011;32569;51.762;8.564;2022-09-12T15:05:54;4.43;;;4.00;;
15230;SDS011;32569;51.762;8.564;2022-09-12T15:08:21;3.97;;;3.63;;
15230;SDS011;32569;51.762;8.564;2022-09-12T15:10:49;4.53;;;3.70;;
15230;SDS011;32569;51.762;8.564;2022-09-12T15:13:17;4.17;;;3.80;;
15230;SDS011;32569;51.762;8.564;2022-09-12T15:15:47;4.47;;;4.07;;